Terminal Aerodrome Forecast
Issued by NWS

Home | Current Version | Previous Version | Text Only | Print | Product List | Glossary On
Versions: 1 2 3 4 5 6 7 8 9 10 11 12 13
000
FTUS45 KFGZ 051129
TAFPRC
TAF
KPRC 051129Z 0512/0612 20005KT P6SM SCT250
     FM051600 17020G30KT P6SM SCT250
     FM051900 18025G35KT P6SM BKN250
     FM060200 19010G20KT P6SM SCT250=

USA.gov is the U.S. government's official web portal to all federal, state and local government web resources and services.